Nearby METAR Reports

 

PAEN - Kenai, Alaska, USA
Distance from station: ESE 2mi, 4km
Updated: Sat, 20-Oct-2018 2:53pm AKDT
Few Clouds
Few Clouds
 Wind from N
Wind: N 8 mph , 13 km/h
Temperature: 50°F , 10°C
Wind Chill: 47°F , 8°C
Dew Point: 41°F , 5°C
Humidity: 71%
Barometer: 29.61 inHg , 1002.7 hPa
Clouds: Few Clouds
Visibility: 10 miles , 16 km
Cloud details: Few Clouds 6500 ft
2018/10/20 22:53 PAEN 202253Z 36007KT 10SM FEW065 10/05 A2961 RMK AO2 SLP029 T01000050
PASX - Soldotna, Alaska, USA
Distance from station: SE 12mi, 19km
Updated: Sat, 20-Oct-2018 2:56pm AKDT
Clear
Clear
 Wind from ENE
Wind: ENE 9 mph , 15 km/h
Temperature: 52°F , 11°C
Dew Point: 37°F , 3°C
Humidity: 58%
Barometer: 29.62 inHg , 1003 hPa
Clouds: Clear
Visibility: 10 miles , 16 km
2018/10/20 22:56 PASX 202256Z AUTO 06008KT 10SM CLR 11/03 A2962 RMK AO2 SLP040 T01060033
 
PANC - Anchorage Intl, Alaska, USA
Distance from station: NE 59mi, 96km
Updated: Sat, 20-Oct-2018 2:53pm AKDT
Overcast
Overcast
 Wind from varies
Wind: varies 7 mph , 11 km/h
Temperature: 52°F , 11°C
Dew Point: 37°F , 3°C
Humidity: 58%
Barometer: 29.64 inHg , 1003.7 hPa
Clouds: Overcast
Visibility: 10 miles , 16 km
Cloud details: Partly cloudy 6000 ft
Overcast 22000 ft
2018/10/20 22:53 PANC 202253Z VRB06KT 10SM SCT060 OVC220 11/03 A2964 RMK AO2 SLP037 T01060033
PALH - Anchorage/Lake H, Alaska, USA
Distance from station: NE 61mi, 99km
Updated: Sat, 20-Oct-2018 2:53pm AKDT
Mostly cloudy
Mostly cloudy
 Wind from N
Wind: N 6 mph , 9 km/h
Temperature: 48°F , 9°C
Wind Chill: 45°F , 7°C
Dew Point: 37°F , 3°C
Humidity: 66%
Barometer: 29.65 inHg , 1004.1 hPa
Clouds: Mostly cloudy
Visibility: 10 miles , 16 km
Cloud details: Mostly cloudy 6000 ft
2018/10/20 22:53 PALH 202253Z 35005KT 10SM BKN060 09/03 A2965 RMK AO2 SLP039 T00890033
 
PAHO - Homer, Alaska, USA
Distance from station: S 66mi, 106km
Updated: Sat, 20-Oct-2018 2:53pm AKDT
Few Clouds
Few Clouds
 Wind from E
Wind: E 13 mph , 20 km/h
Temperature: 50°F , 10°C
Wind Chill: 45°F , 7°C
Dew Point: 34°F , 1°C
Humidity: 54%
Barometer: 29.54 inHg , 1000.3 hPa
Clouds: Few Clouds
Visibility: 10 miles , 16 km
Cloud details: Few Clouds 5500 ft
2018/10/20 22:53 PAHO 202253Z 08011KT 10SM FEW055 10/01 A2954 RMK AO2 SLP004 T01000011
PAMR - Anchorage/Merril, Alaska, USA
Distance from station: NE 66mi, 106km
Updated: Sat, 20-Oct-2018 2:53pm AKDT
Few Clouds
Few Clouds
 Wind from NW
Wind: NW 6 mph , 9 km/h
Temperature: 50°F , 10°C
Wind Chill: 48°F , 9°C
Dew Point: 37°F , 3°C
Humidity: 62%
Barometer: 29.63 inHg , 1003.4 hPa
Clouds: Few Clouds
Visibility: 10 miles , 16 km
Cloud details: Few Clouds 7000 ft
2018/10/20 22:53 PAMR 202253Z 32005KT 10SM FEW070 10/03 A2963 RMK AO2 SLP035 T01000028
 
PAED - Elmendorf Afb, Alaska, USA
Distance from station: NE 69mi, 110km
Updated: Sat, 20-Oct-2018 2:56pm AKDT
Few Clouds
Few Clouds
 Wind from N
Wind: N 8 mph , 13 km/h
Temperature: 48°F , 9°C
Wind Chill: 44°F , 7°C
Dew Point: 41°F , 5°C
Humidity: 76%
Barometer: 29.63 inHg , 1003.4 hPa
Clouds: Few Clouds
Visibility: 10 miles , 16 km
Cloud details: Few Clouds 6000 ft
2018/10/20 22:56 PAED 202256Z 01007KT 10SM FEW060 09/05 A2963 RMK AO2A SLP030 T00940048
PAWD - Seward, Alaska, USA
Distance from station: ESE 71mi, 115km
Updated: Sat, 20-Oct-2018 2:53pm AKDT
Overcast
Overcast
 Wind from S
Wind: S 7 mph , 11 km/h
Temperature: 50°F , 10°C
Wind Chill: 47°F , 8°C
Dew Point: 39°F , 4°C
Humidity: 67%
Barometer: 29.68 inHg , 1005.1 hPa
Clouds: Overcast
Visibility: 10 miles , 16 km
Cloud details: Mostly cloudy 5000 ft
Overcast 6000 ft
2018/10/20 22:53 PAWD 202253Z AUTO 18006KT 10SM BKN050 OVC060 10/04 A2968 RMK AO2 SLP051 T01000044 TSNO $
 
PASC - Deadhorse, Alaska, USA
Distance from station: ENE 670mi, 1078km
Updated: Sat, 20-Oct-2018 2:53pm AKDT
Overcast
Overcast
 Wind from ENE
Wind: ENE 14 mph , 22 km/h
Temperature: 27°F , -3°C
Wind Chill: 16°F , -9°C
Dew Point: 25°F , -4°C
Humidity: 93%
Barometer: 29.87 inHg , 1011.5 hPa
Clouds: Overcast
Visibility: 10 miles , 16 km
Cloud details: Overcast 700 ft
2018/10/20 22:53 PASC 202253Z 07012KT 10SM OVC007 M03/M04 A2987 RMK AO2 SLP116 T10331044 $
PAAD - Point Thomson, Alaska, USA
Distance from station: ENE 680mi, 1094km
Updated: Sat, 20-Oct-2018 3:15pm AKDT
Overcast
Overcast
 Wind from ENE
Wind: ENE 14 mph , 22 km/h
Temperature: 27°F , -3°C
Wind Chill: 16°F , -9°C
Dew Point: 23°F , -5°C
Humidity: 86%
Barometer: 29.87 inHg , 1011.5 hPa
Clouds: Overcast
Visibility: 10 miles , 16 km
Cloud details: Mostly cloudy 700 ft
Overcast 1300 ft
2018/10/20 23:15 PAAD 202315Z AUTO 07012KT 10SM BKN007 OVC013 M03/M05 A2987 RMK AO2 T10351047


kenaipeople.com website

Dans Automotive

Lower Peninsula Power Sports

Freddies RoadHouse

Alaska Weather Net

United States Weather Group